Francisco Marquez

Chief Scout - Cruz Azul
22 Feb 2028
Tuesday
Process

Personality

Adaptability (5) Ambition (20) Controversy (9) Loyalty (8) Pressure (15) Professionalism (18) Sportsmanship (13) Temperament (11)

Profile

Coaching Style Democratic
License National A
Determination 11
Man Management 12
Motivating 6
Discipline 10
Job Satisfaction
100%
Fatigue
0%
Role Chief Scout
Wage 34.3K p/w
Contract 14.03.2029

Performance

Behaviour Good
Training Effectiveness
58%
Player Development
60%
Injury Prevention
35%
Tactical Implementation
70%

Recent Events

Attended a recruitment meeting now
Recommended a transfer target now
Recommended a transfer target now
Attended a recruitment meeting 7d ago
Recommended a transfer target 7d ago
Recommended a transfer target 7d ago
Recommended a transfer target 7d ago
Recommended a transfer target 7d ago

Currently Monitoring

183
Player Club Status Ability Confidence Watched Last Observed Latest Vote
Lewis Morgan SuperSport United Active 131 / 122 40% 9 31.01.2028 -
Nuno Moreira Vasco da Gama Active 135 / 138 40% 1 31.01.2028 -
Tiago Palacios Estudiantes Lost 132 / 129 40% 1 31.01.2028 -
Alan Medina Pumas UNAM Active 112 / 108 93% 1 17.01.2028 Approve
Diego López Rayo Vallecano Active 142 / 148 40% 1 12.01.2028 -
Andrés Martín Racing Santander Active 141 / 136 40% 1 12.01.2028 -
Federico Pereira Nacional Active 135 / 135 68% 1 01.01.2028 Approve
Nicolás Fernández Mercau Independiente Active 134 / 134 67% 1 01.01.2028 Approve
Sebastián Ramírez Jaguares Active 107 / 109 40% 5 28.12.2027 -
Ronan Kpakio Cardiff City Active 123 / 119 40% 3 28.12.2027 -
Dmitry Pestryakov Dinamo Moscow Active 116 / 119 40% 3 28.12.2027 -
Mikkel Hope Haugesund Active 99 / 111 40% 11 26.12.2027 -
Izan Merino Málaga Active 128 / 134 40% 7 26.12.2027 -
David Valencia Alianza Petrolera Active 126 / 136 40% 5 26.12.2027 -
Hervin Goyes Deportivo Pasto Active 107 / 112 40% 10 25.12.2027 -
Luis Otávio Colorado Rapids Active 111 / 123 40% 2 25.12.2027 -
Celías Ingenthron Vélez Active 117 / 119 40% 8 25.12.2027 -
Marc Bernal Real Sociedad Active 149 / 156 40% 12 24.12.2027 -
Héctor Fort Real Sociedad Active 141 / 151 40% 3 24.12.2027 -
Alejandro Almaraz Nueva Chicago Active 109 / 108 40% 10 23.12.2027 -
Olaniyi Saheed Kwara United Active 94 / 93 40% 7 23.12.2027 -
Josh Nichols Tranmere Rovers Active 119 / 125 40% 4 22.12.2027 -
Archie Gray Derby County Active 150 / 155 40% 4 18.12.2027 -
Caleb Yirenkyi Coventry City Active 142 / 147 40% 10 14.12.2027 -
Felipe Faúndez O'Higgins Active 101 / 100 40% 8 12.12.2027 -
Jorge Salinas Racing Santander Active 129 / 128 40% 12 10.12.2027 -
Agustín Obregón River Plate Active 114 / 126 40% 3 08.12.2027 -
Joel Ezra Enyimba Active 96 / 111 40% 3 08.12.2027 -
Mads Bomholt Stabaek Active 108 / 112 40% 7 30.11.2027 -
Ricky Atletico Venezuela Active 97 / 96 40% 5 28.11.2027 -
Juan Morán Godoy Cruz Active 108 / 121 40% 6 28.11.2027 -
Felipe Obradovich Ferro Carril Oeste Active 107 / 117 40% 3 25.11.2027 -
Mauro Carrizo Atlético Tucumán Active 101 / 106 40% 1 20.11.2027 -
Nazareno Roselli Defensa y Justicia Active 112 / 121 40% 2 06.11.2027 -
Matías Gómez Granada Active 117 / 134 40% 2 01.11.2027 -
Juan Giménez Celta Active 120 / 116 40% 1 01.11.2027 -
Ángel Aguayo Sol de America Active 95 / 101 40% 3 31.10.2027 -
Josh King Chelsea Active 145 / 158 40% 1 21.10.2027 -
Teo Rodríguez Pagano River Plate Active 116 / 120 40% 1 04.10.2027 -
Gabriel Moscardo Paris Saint-Germain Active 131 / 138 40% 1 06.09.2027 -
Yusi Alavés Active 133 / 133 40% 1 06.09.2027 -
Luca Langoni Colorado Rapids Active 134 / 129 40% 1 23.08.2027 -
Cheikh Sabaly Vancouver Whitecaps Active 127 / 126 40% 1 23.08.2027 -
Luka Jović AEK Active 144 / 149 40% 1 23.08.2027 -
Hany Mukhtar Spezia Active 138 / 146 40% 7 13.07.2027 -
Álex Forés Burgos Active 135 / 140 40% 1 13.07.2027 -
Jon Morcillo Almería Active 140 / 137 40% 2 12.07.2027 -
Oli McBurnie Hull City Active 141 / 142 40% 12 06.07.2027 -
Yousef Salech Cardiff City Active 130 / 131 40% 13 06.07.2027 -
Roger Brugué Levante Active 131 / 128 40% 1 30.06.2027 -
Jon Bautista Eibar Active 130 / 121 40% 1 30.06.2027 -
Urko González Espanyol Active 140 / 145 40% 1 28.06.2027 -
Iván Martín Racing Santander Active 145 / 149 40% 1 28.06.2027 -
Roberto López Leganés Active 133 / 137 40% 1 28.06.2027 -
Tom Cannon Sheffield United Active 129 / 123 40% 11 24.06.2027 -
Callum O'Hare Sheffield United Active 133 / 138 40% 6 24.06.2027 -
Bertrand Traoré Sunderland Active 135 / 133 40% 6 14.06.2027 -
Ozziel Herrera Tigres Active 134 / 130 40% 21 31.05.2027 -
Dany Mota Monza Active 132 / 128 40% 1 31.05.2027 -
Aune Heggebø West Bromwich Albion Active 131 / 123 40% 12 28.05.2027 -
Soufiane Rahimi Guadalajara Active 140 / 135 40% 13 27.05.2027 -
Hwang Hee-Chan Wolverhampton Active 132 / 128 40% 5 26.05.2027 -
Ilyas Ansah Hull City Active 134 / 142 40% 10 25.05.2027 -
Robert Mizo Ashanti Gold Active 107 / 108 40% 2 25.05.2027 -
Mathias Jørgensen Blackburn Rovers Active 122 / 123 40% 2 25.05.2027 -
Richard Koné Queens Park Rangers Active 124 / 120 40% 6 24.05.2027 -
Bojan Radulović Huddersfield Town Active 116 / 121 40% 1 24.05.2027 -
Lorent Tolaj Plymouth Argyle Active 121 / 122 40% 2 23.05.2027 -
Christian Saydee Wigan Athletic Active 114 / 105 40% 2 23.05.2027 -
Luis Vázquez Birmingham Active 132 / 136 40% 9 22.05.2027 -
André Silva Tondela Active 131 / 127 40% 3 22.05.2027 -
Malik Mothersille Stockport County Active 116 / 107 40% 1 21.05.2027 -
Petar Musa Adana Demirspor Active 140 / 136 40% 13 18.05.2027 -
Iwan Morgan Grimsby Town Active 110 / 121 40% 1 10.05.2027 -
Keinan Davis Udinese Active 136 / 137 40% 3 07.05.2027 -
Hugo Cuypers Monterrey Active 132 / 121 40% 9 06.05.2027 -
Lee Bonis Chesterfield Active 106 / 108 40% 2 04.05.2027 -
Zian Flemming Ipswich Town Active 130 / 126 40% 7 02.05.2027 -
Sascha Britschgi Padova Active 122 / 130 40% 1 02.05.2027 -
Mees Rijks Bristol Rovers Active 116 / 112 40% 1 02.05.2027 -
Ekain Orobengoa Real Sociedad Active 99 / 98 40% 1 30.04.2027 -
Dom Ballard Leyton Orient Active 124 / 120 40% 3 29.04.2027 -
Dylan Lawlor Cardiff City Active 114 / 123 40% 1 27.04.2027 -
Keagan Tau Ajax Cape Town Active 96 / 108 40% 1 27.04.2027 -
Rhian Brewster Oxford United Active 118 / 126 40% 1 25.04.2027 -
Che Adams Torino Active 144 / 136 40% 2 21.04.2027 -
Jayden Wareham Barnet Active 105 / 96 40% 1 16.04.2027 -
Kerem Aktürkoğlu Fenerbahce Active 141 / 142 40% 3 11.04.2027 -
Job Ochieng Real Sociedad Active 107 / 114 40% 2 10.04.2027 -
Tyrese Campbell Sheffield United Active 131 / 133 40% 3 03.04.2027 -
Evidence Makgopa Orlando Pirates Active 115 / 120 40% 2 02.04.2027 -
José Pachuca Puebla Active 107 / 115 40% 2 02.04.2027 -
Ernie Weaver AFC Wimbledon Active 110 / 122 40% 1 02.04.2027 -
Niall Ennis Blackpool Active 113 / 113 40% 1 30.03.2027 -
Valentin Atangana Al-Ahli Active 126 / 128 40% 1 25.03.2027 -
Guilherme Ankaragucu Active 128 / 127 40% 2 24.03.2027 -
Joe Gelhardt Hull City Active 135 / 132 40% 1 24.03.2027 -
Bamba Dieng Crvena Zvezda Active 128 / 128 40% 4 17.03.2027 -
Cheveyo Tsawa Club Brugge Active 118 / 131 40% 1 15.03.2027 -
Cemran Dansin Orlando Pirates Active 113 / 107 40% 1 15.03.2027 -
Joaquin Seys Club Brugge Active 128 / 137 40% 1 15.03.2027 -
Tiago Freitas Benfica Active 106 / 113 40% 1 13.03.2027 -
Christos Mouzakitis Hull City Active 134 / 134 40% 1 13.03.2027 -
Yusuke Matsuo Esteghlal Active 131 / 132 40% 2 10.03.2027 -
Mandla Mahlangu Ajax Cape Town Active 105 / 109 40% 1 09.03.2027 -
Nicolò Tresoldi Club Brugge Active 136 / 143 40% 13 07.03.2027 -
Hlompho Lorch Ajax Cape Town Active 98 / 103 40% 1 07.03.2027 -
Martim Cunha Porto Active 103 / 99 40% 1 07.03.2027 -
Adnan Courtois KV Oostende Active 141 / 126 40% 12 05.03.2027 -
Adriano Bertaccini Anderlecht Active 126 / 130 40% 4 01.03.2027 -
Shahriar Dejagah Tractor Active 122 / 124 40% 2 28.02.2027 -
Karim Karimi Siah Jamegan Active 108 / 105 40% 1 26.02.2027 -
Will Lankshear Middlesbrough Active 129 / 121 40% 1 19.02.2027 -
Etiosa Ighodaro Kaizer Chiefs Active 112 / 102 40% 2 16.02.2027 -
Efraín Álvarez Guadalajara Active 129 / 128 40% 4 13.02.2027 -
Lassina Traoré Shakhtar Active 124 / 110 40% 2 13.02.2027 -
Róbert Boženík Newcastle United Active 128 / 131 40% 1 12.02.2027 -
Adonis Frías Atlas Active 132 / 124 40% 3 08.02.2027 -
Richard Ledezma Guadalajara Active 133 / 129 40% 2 08.02.2027 -
Jesús Angulo Tigres Active 138 / 139 40% 1 07.02.2027 -
Christos Zafeiris Tigres Active 142 / 139 40% 1 07.02.2027 -
Shea Charles Southampton Active 131 / 130 40% 1 05.02.2027 -
Andrew Robertson Tottenham Active 156 / 153 40% 1 05.02.2027 -
Harry Clarke Preston Active 127 / 135 40% 1 04.02.2027 -
Luis Romo Guadalajara Active 138 / 141 40% 1 04.02.2027 -
Leon Goretzka Aston Villa Active 159 / 149 40% 1 03.02.2027 -
Ross McCrorie Bristol City Active 122 / 120 40% 1 03.02.2027 -
Adalberto Carrasquilla Pumas UNAM Active 123 / 121 40% 1 01.02.2027 -
Rodrigo Echeverría Leon Active 126 / 135 40% 1 01.02.2027 -
Luís Esteves Atlas Active 124 / 124 83% 1 18.01.2027 Approve
Themba Ngcobo SuperSport United Active 118 / 114 40% 3 04.01.2027 -
Moussa Dembélé CR Belouizdad Active 139 / 138 40% 1 28.12.2026 -
Ruben van Bommel Ferencvaros Active 138 / 125 40% 4 27.12.2026 -
Manfred Ugalde Spartak Moscow Active 135 / 126 40% 8 26.12.2026 -
Bento Al-Nassr Active 129 / 141 40% 2 17.12.2026 -
Felipe Parra Envigado Active 126 / 131 40% 1 17.12.2026 -
Eddie Nketiah Crystal Palace Active 145 / 137 40% 1 12.12.2026 -
Tomás González Piast Active 119 / 116 40% 3 08.12.2026 -
Nicolás Cordero Aldosivi Active 123 / 118 40% 2 05.12.2026 -
Diego Valdés Vélez Active 126 / 136 40% 4 05.12.2026 -
Alexis Cuello San Lorenzo Active 122 / 122 40% 2 02.12.2026 -
Mauro Silveira Junior Active 118 / 118 40% 2 01.12.2026 -
Freddy Gomez La Equidad Active 137 / 139 40% 2 30.11.2026 -
Esteban Glellel Quilmes Active 123 / 110 40% 1 26.11.2026 -
Erick Reyes Toluca Active 143 / 144 40% 1 25.11.2026 -
Federico Varese Racing Active 107 / 107 40% 1 19.11.2026 -
Alan Velasco Boca Juniors Active 134 / 133 40% 5 15.11.2026 -
Diego Rossi Monterrey Active 134 / 140 40% 9 13.11.2026 -
Bradley Mabunda SuperSport United Active 108 / 120 40% 1 13.11.2026 -
Sebastián Villa Boca Juniors Active 126 / 121 40% 5 08.11.2026 -
Michael Cooper Sheffield United Active 133 / 122 40% 1 08.11.2026 -
Tomás Durso Atlético Tucumán Active 124 / 112 40% 1 08.11.2026 -
Kévin Denkey FC Cincinnati Active 123 / 133 40% 6 05.11.2026 -
Breel Embolo Atlanta United FC Active 142 / 141 40% 5 03.11.2026 -
Paulo Dybala AS Roma Active 154 / 157 40% 2 01.11.2026 -
Wessam Abou Ali Columbus Crew Active 126 / 133 40% 5 23.10.2026 -
Agustín Ruberto River Plate Active 117 / 127 40% 2 22.10.2026 -
Sebastián Cocimano Nueva Chicago Active 116 / 110 40% 1 22.10.2026 -
Ramiro Ruiz Rodríguez Atlético Tucumán Active 129 / 119 40% 1 22.10.2026 -
Gabriel Jesus Barcelona Active 152 / 151 40% 5 20.10.2026 -
Nicolás Fernández Sassuolo Active 134 / 120 40% 1 17.10.2026 -
Leo Ceara Kashima Antlers Active 132 / 137 40% 3 16.10.2026 -
Alexander Díaz Deportivo Riestra Active 123 / 125 40% 1 13.10.2026 -
Luca Martínez Dupuy Godoy Cruz Active 121 / 121 40% 1 10.10.2026 -
Joaquín Correa Estudiantes Active 137 / 124 40% 1 07.10.2026 -
Jordan Morris Seattle Sounders Active 132 / 130 40% 4 02.10.2026 -
Dejan Joveljić Seattle Sounders Active 127 / 126 40% 4 28.09.2026 -
Ezequiel Almirón Estudiantes Active 112 / 118 40% 1 27.09.2026 -
Misael Sosa Godoy Cruz Active 107 / 119 40% 1 22.09.2026 -
Juan Rocca Gimnasia y Tiro Active 109 / 110 40% 1 22.09.2026 -
Erison Kawasaki Frontale Active 124 / 126 40% 1 19.09.2026 -
Myrto Uzuni Austin FC Active 135 / 128 40% 1 19.09.2026 -
Barış Alper Yılmaz Galatasaray Active 154 / 138 40% 1 18.09.2026 -
Josh Sargent Toronto FC Active 125 / 131 40% 2 13.09.2026 -
Agustín Venezia Iquique Active 107 / 105 40% 1 13.09.2026 -
Pep Biel Charlotte Football Club Active 131 / 126 40% 1 09.09.2026 -
Harold Preciado Active 123 / 123 40% 2 07.09.2026 -
Brayan Hurtado Antofagasta Active 96 / 100 40% 1 07.09.2026 -
Martín Ojeda Orlando City Active 137 / 129 40% 2 01.09.2026 -
Federico Girotti Alianza Lima Active 125 / 122 40% 1 07.08.2026 -
Rafael Navarro St. Louis CITY SC Active 129 / 129 40% 1 06.08.2026 -
Carlos Moreno Pachuca Active 134 / 123 40% 1 02.08.2026 -
Sebastián Cáceres Celta Active 132 / 126 40% 1 02.08.2026 -